createdAt,value
2022-09-22T00:01:03.364Z,6.50
2022-09-22T00:03:08.612Z,6.70
2022-09-22T00:05:15.118Z,6.70
2022-09-22T00:07:23.552Z,6.50
2022-09-22T00:09:28.519Z,6.40
2022-09-22T00:11:37.577Z,6.10
2022-09-22T00:13:44.544Z,6.10
2022-09-22T00:15:49.994Z,6.10
2022-09-22T00:17:54.896Z,6.20
2022-09-22T00:19:59.866Z,6.10
2022-09-22T00:22:05.715Z,6.20
2022-09-22T00:24:13.508Z,6.30
2022-09-22T00:26:22.874Z,6.40
2022-09-22T00:28:27.960Z,6.40
2022-09-22T00:30:33.485Z,6.30
2022-09-22T00:32:41.993Z,6.20
2022-09-22T00:34:47.489Z,6.20
2022-09-22T00:36:53.287Z,6.30
2022-09-22T00:39:01.391Z,6.40
2022-09-22T00:41:11.180Z,6.50
2022-09-22T00:43:22.004Z,6.40
2022-09-22T00:45:27.505Z,6.40
2022-09-22T00:47:39.176Z,6.20
2022-09-22T00:49:52.704Z,6.10
2022-09-22T00:51:57.658Z,6.10
2022-09-22T00:54:07.306Z,6.10
2022-09-22T00:56:21.326Z,6.10
2022-09-22T00:58:33.618Z,6.00
2022-09-22T01:00:39.513Z,6.00
2022-09-22T01:02:44.964Z,5.90
2022-09-22T01:04:52.154Z,5.90
2022-09-22T01:06:59.848Z,5.90
2022-09-22T01:09:05.532Z,6.00
2022-09-22T01:11:11.640Z,5.90
2022-09-22T01:13:28.850Z,5.90
2022-09-22T01:15:39.061Z,5.90
2022-09-22T01:18:00.667Z,5.90
2022-09-22T01:20:41.862Z,6.10
2022-09-22T01:23:31.000Z,6.20
2022-09-22T01:26:05.608Z,6.00
2022-09-22T01:28:51.786Z,6.20
2022-09-22T01:31:03.668Z,6.20
2022-09-22T01:33:39.933Z,6.10
2022-09-22T01:36:00.510Z,6.20
2022-09-22T01:38:13.093Z,6.20
2022-09-22T01:40:27.831Z,6.20
2022-09-22T01:42:39.982Z,6.10
2022-09-22T01:44:52.658Z,6.00
2022-09-22T01:47:08.622Z,6.00
2022-09-22T01:49:16.790Z,6.00
2022-09-22T01:51:28.317Z,5.90
2022-09-22T01:53:42.235Z,5.80
2022-09-22T01:55:54.628Z,5.30
2022-09-22T01:58:03.669Z,5.10
2022-09-22T02:00:13.685Z,5.30
2022-09-22T02:02:28.146Z,5.40
2022-09-22T02:04:38.615Z,5.40
2022-09-22T02:06:50.960Z,5.60
2022-09-22T02:09:02.311Z,5.80
2022-09-22T02:11:14.047Z,5.90
2022-09-22T02:13:19.241Z,5.90
2022-09-22T02:15:38.195Z,5.80
2022-09-22T02:17:45.845Z,5.70
2022-09-22T02:19:51.262Z,5.70
2022-09-22T02:21:57.832Z,5.70
2022-09-22T02:24:02.782Z,5.80
2022-09-22T02:26:09.500Z,5.90
2022-09-22T02:28:18.670Z,5.90
2022-09-22T02:30:24.979Z,5.80
2022-09-22T02:32:32.462Z,5.70
2022-09-22T02:34:40.572Z,5.60
2022-09-22T02:36:58.371Z,5.60
2022-09-22T02:39:09.360Z,5.60
2022-09-22T02:41:22.600Z,5.60
2022-09-22T02:43:36.825Z,5.80
2022-09-22T02:45:52.199Z,5.90
2022-09-22T02:48:02.361Z,5.90
2022-09-22T02:50:14.970Z,5.90
2022-09-22T02:52:25.161Z,5.90
2022-09-22T02:54:30.104Z,6.00
2022-09-22T02:56:35.794Z,6.00
2022-09-22T02:58:40.715Z,5.90
2022-09-22T03:00:46.838Z,5.90
2022-09-22T03:02:52.117Z,5.90
2022-09-22T03:04:57.811Z,5.80
2022-09-22T03:07:06.946Z,5.90
2022-09-22T03:09:12.197Z,5.80
2022-09-22T03:11:17.152Z,5.60
2022-09-22T03:13:22.456Z,5.60
2022-09-22T03:15:27.846Z,5.50
2022-09-22T03:17:34.267Z,5.40
2022-09-22T03:19:39.658Z,5.30
2022-09-22T03:21:44.579Z,5.10
2022-09-22T03:23:52.728Z,5.20
2022-09-22T03:25:58.212Z,5.40
2022-09-22T03:28:03.194Z,5.50
2022-09-22T03:30:11.406Z,5.50
2022-09-22T03:32:16.503Z,5.50
2022-09-22T03:34:21.394Z,5.50
2022-09-22T03:36:26.628Z,5.40
2022-09-22T03:38:31.560Z,5.40
2022-09-22T03:40:39.178Z,5.40
2022-09-22T03:42:44.612Z,5.40
2022-09-22T03:44:49.846Z,5.30
2022-09-22T03:46:54.862Z,5.30
2022-09-22T03:49:00.594Z,5.20
2022-09-22T03:51:05.829Z,5.20
2022-09-22T03:53:10.742Z,5.40
2022-09-22T03:55:16.291Z,5.30
2022-09-22T03:57:24.172Z,5.40
2022-09-22T03:59:29.075Z,5.40
2022-09-22T04:01:34.934Z,5.30
2022-09-22T04:03:41.021Z,5.20
2022-09-22T04:05:53.023Z,5.00
2022-09-22T04:07:58.149Z,4.90
2022-09-22T04:10:03.391Z,5.00
2022-09-22T04:12:10.012Z,5.00
2022-09-22T04:14:17.748Z,5.10
2022-09-22T04:16:23.191Z,5.00
2022-09-22T04:18:28.558Z,5.20
2022-09-22T04:20:33.504Z,5.30
2022-09-22T04:22:38.735Z,5.10
2022-09-22T04:24:44.011Z,5.20
2022-09-22T04:27:08.636Z,5.10
2022-09-22T04:29:16.857Z,5.10
2022-09-22T04:31:23.101Z,5.30
2022-09-22T04:33:28.586Z,5.40
2022-09-22T04:35:33.517Z,5.30
2022-09-22T04:37:38.752Z,5.10
2022-09-22T04:39:43.966Z,5.00
2022-09-22T04:41:48.837Z,4.90
2022-09-22T04:43:54.091Z,4.90
2022-09-22T04:46:02.271Z,4.90
2022-09-22T04:48:08.128Z,4.90
2022-09-22T04:50:13.632Z,4.90
2022-09-22T04:52:18.606Z,5.00
2022-09-22T04:54:23.548Z,4.90
2022-09-22T04:56:28.681Z,4.90
2022-09-22T04:58:33.649Z,5.10
2022-09-22T05:00:40.052Z,5.00
2022-09-22T05:02:47.894Z,4.80
2022-09-22T05:04:53.391Z,5.00
2022-09-22T05:06:58.604Z,4.90
2022-09-22T05:09:03.537Z,4.60
2022-09-22T05:11:09.749Z,4.50
2022-09-22T05:13:16.782Z,4.80
2022-09-22T05:15:22.890Z,4.90
2022-09-22T05:17:29.911Z,4.80
2022-09-22T05:19:37.442Z,4.80
2022-09-22T05:21:42.857Z,4.80
2022-09-22T05:23:48.469Z,4.80
2022-09-22T05:25:53.406Z,4.70
2022-09-22T05:28:00.328Z,4.70
2022-09-22T05:30:05.690Z,4.60
2022-09-22T05:32:10.961Z,4.70
2022-09-22T05:34:16.222Z,4.80
2022-09-22T05:36:23.791Z,4.90
2022-09-22T05:38:29.040Z,5.00
2022-09-22T05:40:34.514Z,4.90
2022-09-22T05:42:43.494Z,5.10
2022-09-22T05:44:48.601Z,5.10
2022-09-22T05:46:53.870Z,5.20
2022-09-22T05:48:58.818Z,5.00
2022-09-22T05:51:03.716Z,5.00
2022-09-22T05:53:13.631Z,5.20
2022-09-22T05:55:18.794Z,5.10
2022-09-22T05:57:25.559Z,5.20
2022-09-22T05:59:30.468Z,5.10
2022-09-22T06:01:35.407Z,5.20
2022-09-22T06:03:40.778Z,5.40
2022-09-22T06:05:47.707Z,5.30
2022-09-22T06:08:01.808Z,5.40
2022-09-22T06:10:12.761Z,5.40
2022-09-22T06:12:18.123Z,5.40
2022-09-22T06:14:23.109Z,5.50
2022-09-22T06:16:29.083Z,5.40
2022-09-22T06:18:34.143Z,5.40
2022-09-22T06:20:40.965Z,5.40
2022-09-22T06:22:45.886Z,5.40
2022-09-22T06:24:50.857Z,5.30
2022-09-22T06:26:58.405Z,5.20
2022-09-22T06:29:03.950Z,5.10
2022-09-22T06:31:09.491Z,5.10
2022-09-22T06:33:14.887Z,5.10
2022-09-22T06:35:20.371Z,5.10
2022-09-22T06:37:25.508Z,4.90
2022-09-22T06:39:30.965Z,5.10
2022-09-22T06:41:36.750Z,5.00
2022-09-22T06:43:47.974Z,5.20
2022-09-22T06:45:55.794Z,5.30
2022-09-22T06:48:05.200Z,5.30
2022-09-22T06:50:13.008Z,5.40
2022-09-22T06:52:21.528Z,5.40
2022-09-22T06:54:26.479Z,5.60
2022-09-22T06:56:35.906Z,5.60
2022-09-22T06:59:08.235Z,5.60
2022-09-22T07:01:11.469Z,5.50
2022-09-22T07:03:20.944Z,5.60
2022-09-22T07:05:26.308Z,5.80
2022-09-22T07:07:32.211Z,5.70
2022-09-22T07:09:37.147Z,5.70
2022-09-22T07:11:42.134Z,5.70
2022-09-22T07:13:49.997Z,5.80
2022-09-22T07:15:55.440Z,5.90
2022-09-22T07:18:00.461Z,6.00
2022-09-22T07:20:08.462Z,6.00
2022-09-22T07:22:14.376Z,6.10
2022-09-22T07:24:19.722Z,6.00
2022-09-22T07:26:28.799Z,6.10
2022-09-22T07:28:35.911Z,6.10
2022-09-22T07:30:43.672Z,6.00
2022-09-22T07:32:48.561Z,6.10
2022-09-22T07:34:53.676Z,6.20
2022-09-22T07:36:59.869Z,6.20
2022-09-22T07:39:11.508Z,6.20
2022-09-22T07:41:19.256Z,6.30
2022-09-22T07:43:24.369Z,6.30
2022-09-22T07:45:26.676Z,6.30
2022-09-22T07:47:47.225Z,6.30
2022-09-22T07:49:52.147Z,6.20
2022-09-22T07:51:57.665Z,6.30
2022-09-22T07:54:07.844Z,6.20
2022-09-22T07:56:15.105Z,6.40
2022-09-22T07:58:21.192Z,6.40
2022-09-22T08:00:27.170Z,6.40
2022-09-22T08:02:35.065Z,6.40
2022-09-22T08:04:41.124Z,6.40
2022-09-22T08:06:47.492Z,6.40
2022-09-22T08:08:55.460Z,6.50
2022-09-22T08:11:07.061Z,6.60
2022-09-22T08:13:12.122Z,6.60
2022-09-22T08:15:21.401Z,6.70
2022-09-22T08:17:29.629Z,6.70
2022-09-22T08:19:37.901Z,6.80
2022-09-22T08:21:49.711Z,6.90
2022-09-22T08:23:55.680Z,7.00
2022-09-22T08:26:06.200Z,7.10
2022-09-22T08:28:12.522Z,7.00
2022-09-22T08:30:18.917Z,7.10
2022-09-22T08:32:26.828Z,7.10
2022-09-22T08:34:31.786Z,7.30
2022-09-22T08:36:43.061Z,7.40
2022-09-22T08:38:49.771Z,7.50
2022-09-22T08:41:17.082Z,7.50
2022-09-22T08:43:22.043Z,7.50
2022-09-22T08:45:36.021Z,7.50
2022-09-22T08:48:00.950Z,7.50
2022-09-22T08:50:29.199Z,7.70
2022-09-22T08:52:47.215Z,7.80
2022-09-22T08:54:55.985Z,7.80
2022-09-22T08:57:35.405Z,7.80
2022-09-22T08:59:49.005Z,7.80
2022-09-22T09:02:36.012Z,7.90
2022-09-22T09:05:08.569Z,8.00
2022-09-22T09:07:26.801Z,8.00
2022-09-22T09:09:54.415Z,8.00
2022-09-22T09:12:13.818Z,8.00
2022-09-22T09:14:39.513Z,8.10
2022-09-22T09:16:52.284Z,8.20
2022-09-22T09:19:05.131Z,8.20
2022-09-22T09:21:16.884Z,8.30
2022-09-22T09:25:22.104Z,8.40
2022-09-22T09:25:57.910Z,8.50
2022-09-22T09:28:07.718Z,8.70
2022-09-22T09:30:18.090Z,8.70
2022-09-22T09:32:34.523Z,8.80
2022-09-22T09:34:40.322Z,8.90
2022-09-22T09:36:48.876Z,9.00
2022-09-22T09:38:57.678Z,9.00
2022-09-22T09:41:17.275Z,9.00
2022-09-22T09:43:24.230Z,9.20
2022-09-22T09:45:37.496Z,9.30
2022-09-22T09:48:08.352Z,9.40
2022-09-22T09:50:14.010Z,9.60
2022-09-22T09:52:20.240Z,9.60
2022-09-22T09:54:27.894Z,9.70
2022-09-22T09:56:37.619Z,10.00
2022-09-22T09:59:11.686Z,10.00
2022-09-22T10:01:17.593Z,10.20
2022-09-22T10:03:31.692Z,10.30
2022-09-22T10:05:39.682Z,10.40
2022-09-22T10:07:46.039Z,10.50
2022-09-22T10:09:53.227Z,10.50
2022-09-22T10:12:05.967Z,10.60
2022-09-22T10:14:22.022Z,10.70
2022-09-22T10:16:28.844Z,10.80
2022-09-22T10:18:40.597Z,10.80
2022-09-22T10:20:46.117Z,11.00
2022-09-22T10:22:51.542Z,11.00
2022-09-22T10:25:02.714Z,11.10
2022-09-22T10:27:24.081Z,11.40
2022-09-22T10:29:29.511Z,11.60
2022-09-22T10:31:35.841Z,11.60
2022-09-22T10:33:58.425Z,11.60
2022-09-22T10:36:11.990Z,11.80
2022-09-22T10:38:23.196Z,11.80
2022-09-22T10:40:30.058Z,11.70
2022-09-22T10:42:44.046Z,11.80
2022-09-22T10:44:49.868Z,12.00
2022-09-22T10:47:26.801Z,12.20
2022-09-22T10:49:51.529Z,12.60
2022-09-22T10:52:10.984Z,12.60
2022-09-22T10:54:52.796Z,12.50
2022-09-22T10:57:09.201Z,12.50
2022-09-22T10:59:39.413Z,12.70
2022-09-22T11:02:02.305Z,12.80
2022-09-22T11:04:42.233Z,12.70
2022-09-22T11:07:20.239Z,12.80
2022-09-22T11:09:48.160Z,13.10
2022-09-22T11:12:21.094Z,13.20
2022-09-22T11:14:46.404Z,13.10
2022-09-22T11:17:08.894Z,13.00
2022-09-22T11:19:43.612Z,13.10
2022-09-22T11:22:07.386Z,13.20
2022-09-22T11:24:39.280Z,13.40
2022-09-22T11:26:51.632Z,13.70
2022-09-22T11:29:20.494Z,13.60
2022-09-22T11:31:43.616Z,13.80
2022-09-22T11:34:10.681Z,13.80
2022-09-22T11:36:31.033Z,14.10
2022-09-22T11:39:16.851Z,14.40
2022-09-22T11:41:34.783Z,14.50
2022-09-22T11:44:08.336Z,14.40
2022-09-22T11:46:24.077Z,14.70
2022-09-22T11:48:53.744Z,15.00
2022-09-22T11:51:15.048Z,15.00
2022-09-22T11:53:39.270Z,14.90
2022-09-22T11:55:55.903Z,15.20
2022-09-22T11:58:06.114Z,15.10
2022-09-22T12:00:18.992Z,15.40
2022-09-22T12:02:31.908Z,15.60
2022-09-22T12:04:47.144Z,15.80
2022-09-22T12:06:56.879Z,15.80
2022-09-22T12:09:07.416Z,16.00
2022-09-22T12:11:17.823Z,16.20
2022-09-22T12:13:26.753Z,16.30
2022-09-22T12:15:41.082Z,16.50
2022-09-22T12:17:55.500Z,16.60
2022-09-22T12:20:20.124Z,16.90
2022-09-22T12:22:32.142Z,17.20
2022-09-22T12:24:37.882Z,17.40
2022-09-22T12:26:46.295Z,17.70
2022-09-22T12:28:52.255Z,17.40
2022-09-22T12:31:07.588Z,17.70
2022-09-22T12:33:18.574Z,17.50
2022-09-22T12:35:32.697Z,17.30
2022-09-22T12:37:41.438Z,17.10
2022-09-22T12:39:50.793Z,17.50
2022-09-22T12:42:02.557Z,18.00
2022-09-22T12:44:16.313Z,18.50
2022-09-22T12:46:32.145Z,18.90
2022-09-22T12:48:40.205Z,19.40
2022-09-22T12:53:26.511Z,19.10
2022-09-22T12:55:40.913Z,19.40
2022-09-22T12:57:50.784Z,19.50
2022-09-22T13:00:32.294Z,19.60
2022-09-22T13:02:47.276Z,19.90
2022-09-22T13:05:35.419Z,20.10
2022-09-22T13:07:46.736Z,20.30
2022-09-22T13:09:51.724Z,20.30
2022-09-22T13:12:30.985Z,20.50
2022-09-22T13:15:13.954Z,20.90
2022-09-22T13:17:43.085Z,21.00
2022-09-22T13:19:57.296Z,20.90
2022-09-22T13:22:19.212Z,20.60
2022-09-22T13:24:28.553Z,21.10
2022-09-22T13:26:36.621Z,21.00
2022-09-22T13:28:41.614Z,21.40
2022-09-22T13:30:49.003Z,21.40
2022-09-22T13:32:54.678Z,21.60
2022-09-22T13:34:59.703Z,21.90
2022-09-22T13:37:10.034Z,22.00
2022-09-22T13:39:20.927Z,22.20
2022-09-22T13:41:38.029Z,22.10
2022-09-22T13:43:47.170Z,22.40
2022-09-22T13:45:52.277Z,22.70
2022-09-22T13:48:08.067Z,22.10
2022-09-22T13:50:22.086Z,22.10
2022-09-22T13:52:32.492Z,22.50
2022-09-22T13:54:40.529Z,23.00
2022-09-22T13:56:49.257Z,23.20
2022-09-22T13:58:59.452Z,23.40
2022-09-22T14:01:14.361Z,23.70
2022-09-22T14:03:24.089Z,23.30
2022-09-22T14:05:32.778Z,23.40
2022-09-22T14:07:55.136Z,23.70
2022-09-22T14:10:09.243Z,24.10
2022-09-22T14:12:17.425Z,23.90
2022-09-22T14:14:28.810Z,24.00
2022-09-22T14:16:40.127Z,23.70
2022-09-22T14:18:50.384Z,24.20
2022-09-22T14:20:56.581Z,24.30
2022-09-22T14:23:01.580Z,24.60
2022-09-22T14:25:08.158Z,24.40
2022-09-22T14:27:22.113Z,24.40
2022-09-22T14:29:32.898Z,24.50
2022-09-22T14:31:38.001Z,24.50
2022-09-22T14:33:45.582Z,24.60
2022-09-22T14:35:52.943Z,23.70
2022-09-22T14:38:04.526Z,23.90
2022-09-22T14:40:20.086Z,24.00
2022-09-22T14:42:32.031Z,24.00
2022-09-22T14:44:45.698Z,24.00
2022-09-22T14:46:50.876Z,23.60
2022-09-22T14:48:55.980Z,23.50
2022-09-22T14:51:06.190Z,23.80
2022-09-22T14:53:22.091Z,23.90
2022-09-22T14:55:35.868Z,24.00
2022-09-22T14:57:49.350Z,24.10
2022-09-22T15:00:12.163Z,23.90
2022-09-22T15:02:31.156Z,23.60
2022-09-22T15:04:36.161Z,23.70
2022-09-22T15:06:41.732Z,23.60
2022-09-22T15:08:54.894Z,23.60
2022-09-22T15:11:03.288Z,23.30
2022-09-22T15:13:41.820Z,23.40
2022-09-22T15:15:50.188Z,23.30
2022-09-22T15:18:11.780Z,23.20
2022-09-22T15:20:18.494Z,23.00
2022-09-22T15:22:24.168Z,22.80
2022-09-22T15:24:29.140Z,22.70
2022-09-22T15:26:35.600Z,22.10
2022-09-22T15:28:43.643Z,22.30
2022-09-22T15:30:50.502Z,22.20
2022-09-22T15:32:55.960Z,22.40
2022-09-22T15:35:00.908Z,22.50
2022-09-22T15:37:06.917Z,22.40
2022-09-22T15:39:22.747Z,22.20
2022-09-22T15:41:28.043Z,22.20
2022-09-22T15:43:33.576Z,22.10
2022-09-22T15:45:48.810Z,21.90
2022-09-22T15:47:58.072Z,21.90
2022-09-22T15:50:02.982Z,21.90
2022-09-22T15:52:07.963Z,21.80
2022-09-22T15:54:20.530Z,21.60
2022-09-22T15:56:28.796Z,21.50
2022-09-22T15:58:39.164Z,21.60
2022-09-22T16:00:47.293Z,21.50
2022-09-22T16:02:53.270Z,21.50
2022-09-22T16:05:00.055Z,21.50
2022-09-22T16:07:10.561Z,21.60
2022-09-22T16:09:20.550Z,21.00
2022-09-22T16:11:29.959Z,21.10
2022-09-22T16:13:35.104Z,21.10
2022-09-22T16:15:40.166Z,21.20
2022-09-22T16:17:48.604Z,21.20
2022-09-22T16:19:53.685Z,21.00
2022-09-22T16:21:58.684Z,21.00
2022-09-22T16:24:08.608Z,21.00
2022-09-22T16:26:13.625Z,20.80
2022-09-22T16:28:18.790Z,20.00
2022-09-22T16:30:25.942Z,19.80
2022-09-22T16:32:32.495Z,19.90
2022-09-22T16:34:40.057Z,19.90
2022-09-22T16:36:45.171Z,19.40
2022-09-22T16:38:50.246Z,19.00
2022-09-22T16:41:04.526Z,18.40
2022-09-22T16:43:10.920Z,17.80
2022-09-22T16:45:15.900Z,17.60
2022-09-22T16:47:22.810Z,17.40
2022-09-22T16:49:28.228Z,17.40
2022-09-22T16:51:37.895Z,17.50
2022-09-22T16:53:42.800Z,17.20
2022-09-22T16:55:51.239Z,17.00
2022-09-22T16:57:56.614Z,17.00
2022-09-22T17:00:01.630Z,16.80
2022-09-22T17:02:07.270Z,16.50
2022-09-22T17:04:13.954Z,16.50
2022-09-22T17:06:23.113Z,16.50
2022-09-22T17:08:30.613Z,16.10
2022-09-22T17:10:35.994Z,15.90
2022-09-22T17:12:42.949Z,15.70
2022-09-22T17:14:49.935Z,15.60
2022-09-22T17:16:57.419Z,15.40
2022-09-22T17:19:05.398Z,15.10
2022-09-22T17:21:11.605Z,15.00
2022-09-22T17:23:17.043Z,15.20
2022-09-22T17:25:29.180Z,15.10
2022-09-22T17:27:34.301Z,14.80
2022-09-22T17:29:39.216Z,14.40
2022-09-22T17:31:46.129Z,14.10
2022-09-22T17:33:52.440Z,14.30
2022-09-22T17:36:01.349Z,14.00
2022-09-22T17:38:06.338Z,14.00
2022-09-22T17:40:13.354Z,13.70
2022-09-22T17:42:21.516Z,13.50
2022-09-22T17:44:28.755Z,13.60
2022-09-22T17:46:57.297Z,13.50
2022-09-22T17:49:15.390Z,13.50
2022-09-22T17:51:44.486Z,13.40
2022-09-22T17:54:01.921Z,13.50
2022-09-22T17:56:09.527Z,13.40
2022-09-22T17:58:19.286Z,13.20
2022-09-22T18:00:26.569Z,13.10
2022-09-22T18:02:36.636Z,13.00
2022-09-22T18:04:42.542Z,13.10
2022-09-22T18:06:48.677Z,12.90
2022-09-22T18:08:54.954Z,12.50
2022-09-22T18:11:01.629Z,12.50
2022-09-22T18:13:07.890Z,12.50
2022-09-22T18:15:17.823Z,12.50
2022-09-22T18:17:26.030Z,12.60
2022-09-22T18:19:36.559Z,12.60
2022-09-22T18:21:45.164Z,12.60
2022-09-22T18:23:50.154Z,12.60
2022-09-22T18:25:55.618Z,12.30
2022-09-22T18:28:00.904Z,12.30
2022-09-22T18:30:06.271Z,12.20
2022-09-22T18:32:14.101Z,12.20
2022-09-22T18:34:20.523Z,12.10
2022-09-22T18:36:25.948Z,12.00
2022-09-22T18:38:32.596Z,11.90
2022-09-22T18:40:37.605Z,11.80
2022-09-22T18:42:45.005Z,11.70
2022-09-22T18:44:49.967Z,11.60
2022-09-22T18:46:55.238Z,11.70
2022-09-22T18:49:08.244Z,11.70
2022-09-22T18:51:13.289Z,11.80
2022-09-22T18:53:19.662Z,11.50
2022-09-22T18:55:24.615Z,11.50
2022-09-22T18:57:30.118Z,11.40
2022-09-22T18:59:35.441Z,11.00
2022-09-22T19:01:40.975Z,11.10
2022-09-22T19:03:46.030Z,11.10
2022-09-22T19:05:53.555Z,10.90
2022-09-22T19:07:59.660Z,10.80
2022-09-22T19:10:04.605Z,10.70
2022-09-22T19:12:12.189Z,10.90
2022-09-22T19:14:17.673Z,10.90
2022-09-22T19:16:25.727Z,10.80
2022-09-22T19:18:32.065Z,10.80
2022-09-22T19:20:38.366Z,10.80
2022-09-22T19:22:46.975Z,10.70
2022-09-22T19:24:53.573Z,10.50
2022-09-22T19:26:58.715Z,10.10
2022-09-22T19:29:05.266Z,10.10
2022-09-22T19:31:10.737Z,10.20
2022-09-22T19:33:15.700Z,10.40
2022-09-22T19:35:21.063Z,10.50
2022-09-22T19:38:17.129Z,10.50
2022-09-22T19:40:26.004Z,10.40
2022-09-22T19:42:31.152Z,10.20
2022-09-22T19:44:36.129Z,10.20
2022-09-22T19:46:42.261Z,10.30
2022-09-22T19:48:48.434Z,10.10
2022-09-22T19:50:53.899Z,9.90
2022-09-22T19:52:59.155Z,10.00
2022-09-22T19:55:04.433Z,10.00
2022-09-22T19:57:13.305Z,10.10
2022-09-22T19:59:19.672Z,10.10
2022-09-22T20:01:37.573Z,10.10
2022-09-22T20:03:42.570Z,10.10
2022-09-22T20:05:47.979Z,10.10
2022-09-22T20:07:53.839Z,9.90
2022-09-22T20:09:58.980Z,9.70
2022-09-22T20:12:04.590Z,9.50
2022-09-22T20:14:27.241Z,9.40
2022-09-22T20:16:32.770Z,9.40
2022-09-22T20:18:41.371Z,9.30
2022-09-22T20:20:46.902Z,9.20
2022-09-22T20:23:00.581Z,9.20
2022-09-22T20:25:05.585Z,9.10
2022-09-22T20:27:11.380Z,9.00
2022-09-22T20:29:20.633Z,9.10
2022-09-22T20:31:25.980Z,8.60
2022-09-22T20:33:31.337Z,8.40
2022-09-22T20:35:36.590Z,8.50
2022-09-22T20:37:42.363Z,8.40
2022-09-22T20:39:47.638Z,8.40
2022-09-22T20:41:53.441Z,8.70
2022-09-22T20:43:58.509Z,8.90
2022-09-22T20:46:06.302Z,9.10
2022-09-22T20:48:18.608Z,9.20
2022-09-22T20:50:24.263Z,9.20
2022-09-22T20:52:31.292Z,9.30
2022-09-22T20:54:36.945Z,9.20
2022-09-22T20:56:43.119Z,9.00
2022-09-22T20:58:49.118Z,9.00
2022-09-22T21:00:56.039Z,9.10
2022-09-22T21:03:04.243Z,9.00
2022-09-22T21:05:10.417Z,8.90
2022-09-22T21:07:15.637Z,8.50
2022-09-22T21:09:33.099Z,8.40
2022-09-22T21:11:40.514Z,8.30
2022-09-22T21:13:46.007Z,8.30
2022-09-22T21:15:51.234Z,8.50
2022-09-22T21:17:57.239Z,8.50
2022-09-22T21:20:06.983Z,8.40
2022-09-22T21:22:12.087Z,8.30
2022-09-22T21:24:17.165Z,8.20
2022-09-22T21:26:23.805Z,8.30
2022-09-22T21:28:29.890Z,8.40
2022-09-22T21:30:35.709Z,8.50
2022-09-22T21:32:41.007Z,8.40
2022-09-22T21:34:46.560Z,8.40
2022-09-22T21:36:54.181Z,8.20
2022-09-22T21:39:01.548Z,8.10
2022-09-22T21:41:09.811Z,8.10
2022-09-22T21:43:14.560Z,8.30
2022-09-22T21:45:20.531Z,8.20
2022-09-22T21:47:25.512Z,8.10
2022-09-22T21:49:30.922Z,8.00
2022-09-22T21:51:42.206Z,8.10
2022-09-22T21:53:55.602Z,8.20
2022-09-22T21:56:03.053Z,8.20
2022-09-22T21:58:08.522Z,8.30
2022-09-22T22:00:15.805Z,8.30
2022-09-22T22:02:21.208Z,8.20
2022-09-22T22:04:26.356Z,8.00
2022-09-22T22:06:34.129Z,7.80
2022-09-22T22:08:44.712Z,7.60
2022-09-22T22:11:06.870Z,7.70
2022-09-22T22:13:12.498Z,7.70
2022-09-22T22:15:17.685Z,7.60
2022-09-22T22:17:23.376Z,7.60
2022-09-22T22:19:29.908Z,7.70
2022-09-22T22:21:35.074Z,7.70
2022-09-22T22:23:42.989Z,7.70
2022-09-22T22:25:48.414Z,7.90
2022-09-22T22:27:57.557Z,8.00
2022-09-22T22:30:03.093Z,7.90
2022-09-22T22:32:10.809Z,7.70
2022-09-22T22:34:16.865Z,7.80
2022-09-22T22:36:24.443Z,7.80
2022-09-22T22:38:29.800Z,7.90
2022-09-22T22:40:35.174Z,7.90
2022-09-22T22:42:40.516Z,7.80
2022-09-22T22:44:48.083Z,7.60
2022-09-22T22:46:53.106Z,7.60
2022-09-22T22:48:58.284Z,7.70
2022-09-22T22:51:08.911Z,7.80
2022-09-22T22:53:15.991Z,7.80
2022-09-22T22:55:21.185Z,7.70
2022-09-22T22:57:26.480Z,7.70
2022-09-22T22:59:32.005Z,7.70
2022-09-22T23:01:40.643Z,7.50
2022-09-22T23:03:49.198Z,7.50
2022-09-22T23:06:02.386Z,7.60
2022-09-22T23:08:08.083Z,7.40
2022-09-22T23:10:13.493Z,7.40
2022-09-22T23:12:19.219Z,7.10
2022-09-22T23:14:24.690Z,7.00
2022-09-22T23:16:32.258Z,7.10
2022-09-22T23:18:43.928Z,7.20
2022-09-22T23:20:50.198Z,7.30
2022-09-22T23:22:55.585Z,7.30
2022-09-22T23:25:01.458Z,7.30
2022-09-22T23:27:06.918Z,7.30
2022-09-22T23:29:11.862Z,7.30
2022-09-22T23:31:21.859Z,7.30
2022-09-22T23:33:28.964Z,7.10
2022-09-22T23:35:36.692Z,7.10
2022-09-22T23:37:41.767Z,7.10
2022-09-22T23:39:46.733Z,7.00
2022-09-22T23:41:52.301Z,7.00
2022-09-22T23:43:57.734Z,7.10
2022-09-22T23:46:04.500Z,7.00
2022-09-22T23:48:09.577Z,6.90
2022-09-22T23:50:14.602Z,7.10
2022-09-22T23:52:22.487Z,7.00
2022-09-22T23:54:28.432Z,7.00
2022-09-22T23:56:33.457Z,6.90
2022-09-22T23:58:39.199Z,6.70
